Time;durP1;ratioP1;P1;durP2;ratioP2;P2;SDS_P1;SDS_P2;PMS_P1;PMS_P2;Temp;Humidity;BMP_temperature;BMP_pressure;BME280_temperature;BME280_humidity;BME280_pressure;Samples;Min_cycle;Max_cycle;Signal;HPM_P1;HPM_P2
2022/08/07 00:01:59;;;;;;;8.15;2.70;;;16.00;99.90;;;;;;4171257;28;20176;-87
2022/08/07 00:04:00;;;;;;;4.00;2.30;;;16.10;99.90;;;;;;4169452;28;20172;-93
2022/08/07 00:06:02;;;;;;;6.55;2.50;;;16.10;99.90;;;;;;4170203;28;20203;-86
2022/08/07 00:08:04;;;;;;;5.47;2.58;;;16.00;99.90;;;;;;4138650;28;20186;-86
2022/08/07 00:10:05;;;;;;;5.07;2.90;;;16.00;99.90;;;;;;4155676;28;20185;-86
2022/08/07 00:12:06;;;;;;;4.05;2.50;;;16.10;99.90;;;;;;4171609;28;20655;-90
2022/08/07 00:14:07;;;;;;;8.05;2.00;;;15.90;99.90;;;;;;4171428;28;20215;-87
2022/08/07 00:16:14;;;;;;;7.07;2.50;;;16.10;99.90;;;;;;4159188;28;20530;-85
2022/08/07 00:18:21;;;;;;;8.10;2.20;;;15.90;99.90;;;;;;4159212;28;20188;-87
2022/08/07 00:20:22;;;;;;;6.53;2.38;;;15.70;99.90;;;;;;4159047;28;20176;-85
2022/08/07 00:22:22;;;;;;;5.68;1.98;;;15.80;99.90;;;;;;4159615;28;20267;-85
2022/08/07 00:24:23;;;;;;;3.90;1.92;;;16.00;99.90;;;;;;4159724;28;20184;-86
2022/08/07 00:26:24;;;;;;;4.53;2.35;;;16.10;99.90;;;;;;4157545;28;20226;-86
2022/08/07 00:28:30;;;;;;;9.07;2.58;;;16.00;99.90;;;;;;4174333;28;20236;-85
2022/08/07 00:30:31;;;;;;;5.35;2.30;;;15.60;99.90;;;;;;4175040;28;20224;-86
2022/08/07 00:32:33;;;;;;;4.35;2.13;;;15.50;99.90;;;;;;4174923;28;20562;-87
2022/08/07 00:34:34;;;;;;;4.55;2.13;;;15.40;99.90;;;;;;4175717;28;20200;-86
2022/08/07 00:36:36;;;;;;;6.63;2.00;;;15.50;99.90;;;;;;4158366;28;20169;-86
2022/08/07 00:38:38;;;;;;;5.30;2.33;;;15.50;99.90;;;;;;4158646;28;20753;-86
2022/08/07 00:40:54;;;;;;;3.63;2.15;;;15.40;99.90;;;;;;4175776;28;20176;-85
2022/08/07 00:42:58;;;;;;;7.03;2.10;;;15.50;99.90;;;;;;4175405;28;20214;-86
2022/08/07 00:45:03;;;;;;;8.43;2.50;;;15.50;99.90;;;;;;4174537;28;20255;-85
2022/08/07 00:47:27;;;;;;;5.60;2.53;;;15.60;99.90;;;;;;4156389;28;20227;-86
2022/08/07 00:49:28;;;;;;;7.68;1.85;;;15.50;99.90;;;;;;4156852;28;20181;-87
2022/08/07 00:51:29;;;;;;;6.63;2.00;;;15.10;99.90;;;;;;4173223;28;20187;-94
2022/08/07 00:53:31;;;;;;;4.07;1.73;;;14.80;99.90;;;;;;4157449;28;20240;-88
2022/08/07 00:55:32;;;;;;;10.57;2.58;;;14.60;99.90;;;;;;4156225;28;20188;-96
2022/08/07 00:57:33;;;;;;;5.70;2.10;;;14.80;99.90;;;;;;4167846;28;20172;-85
2022/08/07 00:59:35;;;;;;;8.52;2.30;;;14.60;99.90;;;;;;4168350;28;20172;-91
2022/08/07 01:01:36;;;;;;;4.00;2.13;;;14.70;99.90;;;;;;4152033;28;20235;-87
2022/08/07 01:03:37;;;;;;;4.72;2.50;;;14.90;99.90;;;;;;4168695;28;20198;-86
2022/08/07 01:05:39;;;;;;;11.05;2.40;;;15.10;99.90;;;;;;4152843;28;20180;-89
2022/08/07 01:07:40;;;;;;;6.65;2.13;;;15.10;99.90;;;;;;4168761;28;20187;-85
2022/08/07 01:09:41;;;;;;;5.93;2.30;;;15.10;99.90;;;;;;4169223;28;20180;-91
2022/08/07 01:11:42;;;;;;;3.45;2.13;;;15.10;99.90;;;;;;4152779;28;20211;-93
2022/08/07 01:13:43;;;;;;;7.35;2.60;;;15.10;99.90;;;;;;4151429;28;20213;-86
2022/08/07 01:15:45;;;;;;;6.25;2.60;;;15.00;99.90;;;;;;4150090;28;20216;-93
2022/08/07 01:17:46;;;;;;;6.85;2.40;;;15.00;99.90;;;;;;4149789;28;20180;-86
2022/08/07 01:19:49;;;;;;;8.23;2.80;;;15.30;99.90;;;;;;4166453;28;20720;-90
2022/08/07 01:24:15;;;;;;;4.72;2.40;;;15.60;99.90;;;;;;4125896;28;20198;-90
2022/08/07 01:26:19;;;;;;;7.38;2.20;;;15.40;99.90;;;;;;4110065;28;20171;-90
2022/08/07 01:28:21;;;;;;;4.38;2.40;;;15.20;99.90;;;;;;4128060;28;20681;-90
2022/08/07 01:30:25;;;;;;;8.80;2.55;;;15.20;99.90;;;;;;4129777;28;20182;-90
2022/08/07 01:32:42;;;;;;;6.70;2.40;;;15.50;99.90;;;;;;4126611;28;20202;-91
2022/08/07 01:34:44;;;;;;;10.70;2.90;;;15.70;99.90;;;;;;4123392;28;20213;-91
2022/08/07 01:37:01;;;;;;;4.53;2.50;;;15.80;99.90;;;;;;4125948;28;20178;-91
2022/08/07 01:39:03;;;;;;;3.70;2.40;;;16.00;99.90;;;;;;4111939;28;20187;-92
2022/08/07 01:41:08;;;;;;;8.65;2.58;;;15.70;99.90;;;;;;4111121;28;20179;-90
2022/08/07 01:43:09;;;;;;;6.15;2.53;;;15.20;99.90;;;;;;4127636;28;20296;-90
2022/08/07 01:45:10;;;;;;;6.75;2.60;;;14.90;99.90;;;;;;4125775;28;20189;-90
2022/08/07 01:47:12;;;;;;;6.10;2.70;;;15.20;99.90;;;;;;4127953;28;20158;-91
2022/08/07 01:49:13;;;;;;;8.52;2.72;;;15.30;99.90;;;;;;4112123;28;20636;-90
2022/08/07 01:51:20;;;;;;;9.32;3.10;;;15.30;99.90;;;;;;4108249;28;20315;-90
2022/08/07 01:53:22;;;;;;;5.72;2.92;;;15.40;99.90;;;;;;4129474;28;20205;-90
2022/08/07 01:56:09;;;;;;;5.88;2.80;;;15.50;99.90;;;;;;4130576;28;20166;-91
2022/08/07 01:58:21;;;;;;;6.30;2.67;;;15.60;99.90;;;;;;4124834;28;20206;-90
2022/08/07 02:00:25;;;;;;;5.18;2.80;;;15.50;99.90;;;;;;4110639;28;20162;-90
2022/08/07 02:02:39;;;;;;;5.93;2.83;;;15.60;99.90;;;;;;4128004;28;20186;-90
2022/08/07 02:05:03;;;;;;;4.90;2.85;;;15.80;99.90;;;;;;4124737;28;20182;-90
2022/08/07 02:07:10;;;;;;;7.88;3.00;;;15.80;99.90;;;;;;4113467;28;20191;-91
2022/08/07 02:09:16;;;;;;;4.32;2.53;;;16.00;99.90;;;;;;4113160;28;20179;-90
2022/08/07 02:11:18;;;;;;;3.83;2.50;;;15.90;99.90;;;;;;4126599;28;20166;-90
2022/08/07 02:13:23;;;;;;;5.20;2.38;;;15.50;99.90;;;;;;4109685;28;20214;-91
2022/08/07 02:15:29;;;;;;;7.13;2.83;;;15.10;99.90;;;;;;4127837;28;20170;-91
2022/08/07 02:17:30;;;;;;;3.70;2.38;;;14.80;99.90;;;;;;4125951;28;20186;-90
2022/08/07 02:19:32;;;;;;;7.45;2.92;;;14.50;99.90;;;;;;4125319;28;20162;-90
2022/08/07 02:21:36;;;;;;;4.47;2.28;;;14.40;99.90;;;;;;4126337;28;20182;-91
2022/08/07 02:23:39;;;;;;;4.65;2.40;;;14.40;99.90;;;;;;4126036;28;20261;-91
2022/08/07 02:25:42;;;;;;;5.38;3.25;;;14.50;99.90;;;;;;4124793;28;20657;-91
2022/08/07 02:27:54;;;;;;;7.70;3.03;;;14.60;99.90;;;;;;4129622;28;20194;-91
2022/08/07 02:29:59;;;;;;;8.07;3.00;;;14.60;99.90;;;;;;4125810;28;20317;-90
2022/08/07 02:32:11;;;;;;;7.72;3.28;;;14.60;99.90;;;;;;4111910;28;20158;-90
2022/08/07 02:34:15;;;;;;;11.20;4.38;;;14.70;99.90;;;;;;4126184;28;20202;-90
2022/08/07 02:36:28;;;;;;;7.30;3.97;;;14.60;99.90;;;;;;4126660;28;20171;-90
2022/08/07 02:38:34;;;;;;;8.07;3.55;;;15.00;99.90;;;;;;4126463;28;20613;-90
2022/08/07 02:40:37;;;;;;;7.03;3.78;;;15.30;99.90;;;;;;4127396;28;20154;-90
2022/08/07 02:42:41;;;;;;;8.88;3.40;;;15.50;99.90;;;;;;4109324;28;20210;-90
2022/08/07 02:44:48;;;;;;;8.48;3.53;;;15.60;99.90;;;;;;4193394;22;20215;-90
2022/08/07 02:47:01;;;;;;;10.70;3.45;;;15.90;99.90;;;;;;4194591;28;20175;-91
2022/08/07 02:49:04;;;;;;;6.70;3.85;;;16.20;99.90;;;;;;4192597;28;20553;-90
2022/08/07 02:51:15;;;;;;;6.80;3.50;;;16.30;99.90;;;;;;4174787;28;20149;-91
2022/08/07 02:53:53;;;;;;;6.28;3.58;;;16.40;99.90;;;;;;4180881;28;20211;-90
2022/08/07 02:56:21;;;;;;;7.70;3.35;;;16.40;99.90;;;;;;4177524;28;20195;-89
2022/08/07 02:58:24;;;;;;;7.93;3.90;;;16.00;99.90;;;;;;4179494;28;20160;-91
2022/08/07 03:00:27;;;;;;;12.38;5.07;;;16.00;99.90;;;;;;4196279;28;20249;-90
2022/08/07 03:02:28;;;;;;;8.93;4.30;;;16.20;99.90;;;;;;4178127;28;20211;-91
2022/08/07 03:04:29;;;;;;;11.75;4.63;;;16.20;99.90;;;;;;4176569;28;20206;-90
2022/08/07 03:06:46;;;;;;;5.68;3.97;;;16.00;99.90;;;;;;4193744;28;20162;-90
2022/08/07 03:08:52;;;;;;;6.18;3.80;;;15.70;99.90;;;;;;4177669;28;20194;-90
2022/08/07 03:10:53;;;;;;;8.38;3.88;;;15.00;99.90;;;;;;4178075;28;20160;-91
2022/08/07 03:13:05;;;;;;;5.88;4.03;;;15.00;99.90;;;;;;4175040;28;20668;-91
2022/08/07 03:15:07;;;;;;;9.70;4.05;;;14.70;99.90;;;;;;4175438;28;20184;-90
2022/08/07 03:17:21;;;;;;;10.15;4.10;;;14.60;99.90;;;;;;4193267;28;20176;-92
2022/08/07 03:19:23;;;;;;;12.93;3.70;;;14.30;99.90;;;;;;4179173;28;20167;-91
2022/08/07 03:21:25;;;;;;;5.45;3.40;;;14.40;99.90;;;;;;4192225;28;20148;-91
2022/08/07 03:23:28;;;;;;;5.95;3.63;;;14.40;99.90;;;;;;4176956;28;20176;-91
2022/08/07 03:25:41;;;;;;;8.27;4.00;;;14.50;99.90;;;;;;4177440;28;20652;-90
2022/08/07 03:27:48;;;;;;;6.40;3.60;;;14.50;99.90;;;;;;4176675;28;20262;-91
2022/08/07 03:29:51;;;;;;;5.85;3.55;;;14.20;99.90;;;;;;4173760;28;20176;-91
2022/08/07 03:32:16;;;;;;;6.28;3.80;;;14.10;99.90;;;;;;4175118;28;20153;-91
2022/08/07 03:34:19;;;;;;;6.25;4.07;;;14.00;99.90;;;;;;4175327;28;20196;-90
2022/08/07 03:36:24;;;;;;;7.30;3.38;;;13.90;99.90;;;;;;4176442;28;20171;-91
2022/08/07 03:38:24;;;;;;;6.68;3.88;;;13.90;99.90;;;;;;4176529;28;20187;-90
2022/08/07 03:40:25;;;;;;;6.97;3.75;;;13.90;99.90;;;;;;4174441;28;20165;-92
2022/08/07 03:42:27;;;;;;;9.35;3.58;;;13.90;99.90;;;;;;4160164;28;20185;-90
2022/08/07 03:44:29;;;;;;;5.95;3.45;;;13.90;99.90;;;;;;4191189;28;20178;-90
2022/08/07 03:46:31;;;;;;;5.65;3.42;;;13.90;99.90;;;;;;4176610;28;20160;-91
2022/08/07 03:48:33;;;;;;;11.18;4.10;;;13.80;99.90;;;;;;4189427;28;20179;-91
2022/08/07 03:50:34;;;;;;;5.35;3.63;;;13.80;99.90;;;;;;4175861;28;20160;-91
2022/08/07 03:52:39;;;;;;;6.10;3.70;;;13.90;99.90;;;;;;4160798;28;20183;-91
2022/08/07 03:54:50;;;;;;;5.03;3.17;;;13.90;99.90;;;;;;4158535;28;20201;-91
2022/08/07 03:56:53;;;;;;;6.88;3.40;;;14.00;99.90;;;;;;4173706;28;20167;-90
2022/08/07 03:58:54;;;;;;;4.95;3.35;;;14.00;99.90;;;;;;4172439;28;20187;-90
2022/08/07 04:00:58;;;;;;;7.50;3.53;;;13.80;99.90;;;;;;4155785;28;20324;-90
2022/08/07 04:03:00;;;;;;;7.70;3.97;;;13.70;99.90;;;;;;4188885;28;20206;-90
2022/08/07 04:05:06;;;;;;;9.25;4.10;;;13.60;99.90;;;;;;4172403;28;20183;-90
2022/08/07 04:07:07;;;;;;;6.35;4.07;;;13.50;99.90;;;;;;4172099;28;20172;-90
2022/08/07 04:09:08;;;;;;;7.68;4.28;;;13.60;99.90;;;;;;4172198;28;20696;-91
2022/08/07 04:11:10;;;;;;;6.88;3.75;;;13.70;99.90;;;;;;4174417;28;20172;-91
2022/08/07 04:13:28;;;;;;;9.93;4.22;;;13.80;99.90;;;;;;4175331;28;20269;-91
2022/08/07 04:15:30;;;;;;;10.57;4.53;;;13.90;99.90;;;;;;4173595;28;20184;-91
2022/08/07 04:17:31;;;;;;;10.55;4.25;;;14.00;99.90;;;;;;4171868;28;20167;-90
2022/08/07 04:19:32;;;;;;;10.57;4.88;;;14.00;99.90;;;;;;4170094;28;20203;-91
2022/08/07 04:21:40;;;;;;;6.95;4.65;;;14.10;99.90;;;;;;4171482;28;20195;-91
2022/08/07 04:23:41;;;;;;;10.18;4.88;;;14.10;99.90;;;;;;4159261;28;20203;-91
2022/08/07 04:25:43;;;;;;;6.75;5.18;;;14.20;99.90;;;;;;4159259;28;20161;-91
2022/08/07 04:27:46;;;;;;;8.23;4.85;;;13.90;99.90;;;;;;4173549;28;20168;-91
2022/08/07 04:30:00;;;;;;;13.20;5.07;;;13.70;99.90;;;;;;4174062;28;20184;-90
2022/08/07 04:32:16;;;;;;;9.98;5.63;;;13.60;99.90;;;;;;4174117;28;20152;-90
2022/08/07 04:34:33;;;;;;;9.73;5.30;;;13.70;99.90;;;;;;4171240;28;20308;-91
2022/08/07 04:36:35;;;;;;;9.23;5.38;;;13.60;99.90;;;;;;4173274;28;20183;-90
2022/08/07 04:38:45;;;;;;;10.10;5.88;;;13.70;99.90;;;;;;4176847;28;20198;-90
2022/08/07 04:40:47;;;;;;;10.35;6.10;;;13.70;99.90;;;;;;4173543;28;20227;-90
2022/08/07 04:42:48;;;;;;;8.93;6.03;;;13.60;99.90;;;;;;4176361;28;20196;-90
2022/08/07 04:44:49;;;;;;;10.00;6.68;;;13.60;99.90;;;;;;4173257;28;20299;-91
2022/08/07 04:47:19;;;;;;;15.93;6.38;;;13.60;99.90;;;;;;4187056;28;20193;-91
2022/08/07 04:49:52;;;;;;;11.43;5.72;;;13.60;99.90;;;;;;4172270;28;20173;-91
2022/08/07 04:52:39;;;;;;;11.15;6.72;;;13.60;99.90;;;;;;4186029;28;20206;-90
2022/08/07 04:54:55;;;;;;;13.88;7.13;;;14.10;99.90;;;;;;4171013;28;20222;-90
2022/08/07 04:57:02;;;;;;;10.70;6.43;;;14.30;99.90;;;;;;4174167;28;20203;-91
2022/08/07 04:59:10;;;;;;;12.50;6.45;;;14.30;99.90;;;;;;4192535;28;20245;-90
2022/08/07 05:01:26;;;;;;;10.80;6.70;;;14.20;99.90;;;;;;4174866;28;20660;-91
2022/08/07 05:03:33;;;;;;;14.02;6.70;;;14.10;99.90;;;;;;4175314;28;20231;-90
2022/08/07 05:05:57;;;;;;;11.13;7.30;;;14.10;99.90;;;;;;4176990;28;20152;-91
2022/08/07 05:08:03;;;;;;;12.57;7.18;;;14.20;99.90;;;;;;4175879;28;20176;-90
2022/08/07 05:10:08;;;;;;;15.38;7.05;;;14.30;99.90;;;;;;4175787;28;20176;-90
2022/08/07 05:12:30;;;;;;;10.98;7.65;;;14.20;99.90;;;;;;4178374;28;20191;-91
2022/08/07 05:14:52;;;;;;;12.05;7.63;;;14.30;99.90;;;;;;4179917;28;20227;-90
2022/08/07 05:16:59;;;;;;;16.38;8.15;;;14.70;99.90;;;;;;4171759;28;20180;-91
2022/08/07 05:19:07;;;;;;;16.38;8.05;;;15.10;99.90;;;;;;4175855;28;20184;-90
2022/08/07 05:21:11;;;;;;;12.65;8.43;;;15.20;99.90;;;;;;4176758;28;20236;-92
2022/08/07 05:23:24;;;;;;;14.27;8.18;;;15.10;99.90;;;;;;4192824;28;20175;-91
2022/08/07 05:25:27;;;;;;;19.10;8.20;;;14.90;99.90;;;;;;4175308;28;20168;-91
2022/08/07 05:27:29;;;;;;;17.58;8.55;;;14.80;99.90;;;;;;4173735;28;20172;-89
2022/08/07 05:29:33;;;;;;;13.52;8.13;;;14.80;99.90;;;;;;4191759;28;20668;-91
2022/08/07 05:31:39;;;;;;;14.80;7.78;;;14.90;99.90;;;;;;4175369;28;20180;-92
2022/08/07 05:33:44;;;;;;;12.57;7.40;;;14.90;99.90;;;;;;4157588;28;20209;-96
2022/08/07 05:35:46;;;;;;;15.45;8.25;;;15.20;99.90;;;;;;4190776;28;20167;-90
2022/08/07 05:37:49;;;;;;;13.10;8.15;;;15.40;99.90;;;;;;4176097;28;20172;-91
2022/08/07 05:39:50;;;;;;;14.52;7.85;;;15.60;99.90;;;;;;4173067;28;20740;-90
2022/08/07 05:41:51;;;;;;;12.70;7.18;;;15.70;99.90;;;;;;4172196;28;20568;-91
2022/08/07 05:43:54;;;;;;;12.27;7.50;;;15.60;99.90;;;;;;4156753;28;20209;-90
2022/08/07 05:45:57;;;;;;;17.33;7.60;;;15.80;99.90;;;;;;4171340;28;20195;-90
2022/08/07 05:48:00;;;;;;;13.45;7.10;;;15.80;99.90;;;;;;4175042;28;20172;-90
2022/08/07 05:50:02;;;;;;;14.18;7.30;;;15.80;99.90;;;;;;4176148;28;20211;-96
2022/08/07 05:52:04;;;;;;;12.13;6.68;;;15.90;99.90;;;;;;4192747;28;20183;-92
2022/08/07 05:54:06;;;;;;;16.77;7.03;;;16.00;99.90;;;;;;4171635;28;20227;-90
2022/08/07 05:56:12;;;;;;;12.23;6.55;;;16.10;99.90;;;;;;4173091;28;20317;-91
2022/08/07 05:58:35;;;;;;;11.80;7.07;;;16.20;99.90;;;;;;4176394;28;20199;-94
2022/08/07 06:00:37;;;;;;;12.52;6.72;;;16.30;99.90;;;;;;4175234;28;20180;-91
2022/08/07 06:02:44;;;;;;;14.10;7.03;;;16.10;99.90;;;;;;4178802;28;20200;-90
2022/08/07 06:04:52;;;;;;;10.77;6.20;;;16.10;99.90;;;;;;4172518;28;20187;-90
2022/08/07 06:06:54;;;;;;;14.07;6.70;;;16.00;99.90;;;;;;4171429;28;20176;-91
2022/08/07 06:08:56;;;;;;;11.43;6.40;;;15.90;99.90;;;;;;4188797;28;20242;-90
2022/08/07 06:10:57;;;;;;;10.48;6.43;;;15.90;99.90;;;;;;4168833;28;20255;-91
2022/08/07 06:13:00;;;;;;;13.90;6.68;;;15.90;99.90;;;;;;4169616;28;20192;-96
2022/08/07 06:15:01;;;;;;;14.65;6.53;;;15.90;99.90;;;;;;4185638;28;20214;-96
2022/08/07 06:17:04;;;;;;;11.98;6.65;;;16.00;99.90;;;;;;4154726;28;20165;-96
2022/08/07 06:19:09;;;;;;;14.02;6.35;;;16.30;99.90;;;;;;4187916;28;20186;-96
2022/08/07 06:21:11;;;;;;;10.32;5.25;;;16.30;99.90;;;;;;4171278;28;20176;-91
2022/08/07 06:23:12;;;;;;;8.95;5.35;;;16.30;99.90;;;;;;4174973;28;20188;-95
2022/08/07 06:25:15;;;;;;;10.48;5.65;;;16.60;99.90;;;;;;4157912;28;20169;-91
2022/08/07 06:27:21;;;;;;;8.32;5.20;;;16.50;99.90;;;;;;4175326;28;20239;-96
2022/08/07 06:29:28;;;;;;;10.88;5.38;;;16.60;99.90;;;;;;4174053;28;20696;-96
2022/08/07 06:31:29;;;;;;;8.52;4.90;;;16.70;99.90;;;;;;4188792;28;20178;-95
2022/08/07 06:33:31;;;;;;;12.50;5.70;;;17.10;99.90;;;;;;4172242;28;20299;-96
2022/08/07 06:35:33;;;;;;;11.80;5.25;;;17.30;99.90;;;;;;4172861;28;20195;-90
2022/08/07 06:37:34;;;;;;;9.88;5.35;;;17.60;99.90;;;;;;4158736;28;20173;-92
2022/08/07 06:39:35;;;;;;;7.95;4.95;;;17.60;99.90;;;;;;4158462;28;20177;-91
2022/08/07 06:41:43;;;;;;;10.23;5.18;;;17.60;99.90;;;;;;4177062;28;20160;-95
2022/08/07 06:43:47;;;;;;;8.95;4.30;;;17.70;99.90;;;;;;4175420;28;20211;-92
2022/08/07 06:45:53;;;;;;;9.88;4.25;;;17.60;99.90;;;;;;4175610;28;20176;-96
2022/08/07 06:47:55;;;;;;;12.70;4.15;;;17.50;99.90;;;;;;4175867;28;20318;-91
2022/08/07 06:49:56;;;;;;;9.90;4.22;;;17.40;99.90;;;;;;4174558;28;20164;-91
2022/08/07 06:51:58;;;;;;;6.85;3.80;;;17.50;99.90;;;;;;4172111;28;20168;-92
2022/08/07 06:54:04;;;;;;;7.65;4.13;;;17.50;99.90;;;;;;4192073;28;20219;-91
2022/08/07 06:56:46;;;;;;;8.25;4.13;;;17.50;99.90;;;;;;4192095;28;20645;-90
2022/08/07 06:58:50;;;;;;;6.20;3.28;;;17.60;99.90;;;;;;4175686;28;20183;-94
2022/08/07 07:00:52;;;;;;;7.15;3.30;;;17.60;99.90;;;;;;4173149;28;20187;-96
2022/08/07 07:02:59;;;;;;;8.15;3.05;;;17.80;99.90;;;;;;4174427;28;20202;-95
2022/08/07 07:05:01;;;;;;;6.38;2.72;;;17.90;99.90;;;;;;4156329;28;20177;-95
2022/08/07 07:07:02;;;;;;;7.88;2.90;;;18.00;99.90;;;;;;4173809;28;20207;-90
2022/08/07 07:09:19;;;;;;;4.10;2.30;;;18.00;99.90;;;;;;4158517;28;20176;-96
2022/08/07 07:11:20;;;;;;;3.63;2.20;;;18.10;99.90;;;;;;4171463;28;20192;-90
2022/08/07 07:13:40;;;;;;;4.63;1.90;;;18.20;99.90;;;;;;4157283;28;20169;-90
2022/08/07 07:15:54;;;;;;;4.93;1.98;;;18.10;99.90;;;;;;4173028;28;20239;-93
2022/08/07 07:18:18;;;;;;;3.47;1.77;;;18.40;99.90;;;;;;4175224;28;20238;-92
2022/08/07 07:20:24;;;;;;;3.50;1.95;;;19.20;99.90;;;;;;4189743;28;20172;-90
2022/08/07 07:22:27;;;;;;;5.20;1.75;;;20.10;99.90;;;;;;4173458;28;20607;-92
2022/08/07 07:24:28;;;;;;;3.75;1.80;;;20.80;99.90;;;;;;4187126;28;20167;-91
2022/08/07 07:26:32;;;;;;;5.43;1.83;;;21.20;99.90;;;;;;4171681;28;20187;-90
2022/08/07 07:28:56;;;;;;;4.65;1.70;;;21.70;99.90;;;;;;4187147;28;20175;-91
2022/08/07 07:31:09;;;;;;;3.22;1.65;;;22.00;99.90;;;;;;4173343;28;20270;-96
2022/08/07 07:33:13;;;;;;;3.67;1.50;;;22.20;99.90;;;;;;4187516;28;20214;-90
2022/08/07 07:35:19;;;;;;;3.25;1.58;;;22.40;99.90;;;;;;4170042;28;20203;-91
2022/08/07 07:37:21;;;;;;;3.17;1.77;;;22.80;99.90;;;;;;4191468;28;20655;-95
2022/08/07 07:39:23;;;;;;;5.38;1.95;;;22.90;99.90;;;;;;4170745;28;20183;-92
2022/08/07 07:41:25;;;;;;;4.63;1.90;;;23.40;99.90;;;;;;4186032;28;20179;-92
2022/08/07 07:43:29;;;;;;;5.35;2.05;;;23.60;99.90;;;;;;4168175;28;20203;-91
2022/08/07 07:45:31;;;;;;;2.17;1.40;;;23.60;99.90;;;;;;4184055;28;20190;-92
2022/08/07 07:47:38;;;;;;;4.88;1.95;;;23.50;99.90;;;;;;4166387;28;20180;-91
2022/08/07 07:49:40;;;;;;;2.80;1.50;;;23.90;99.90;;;;;;4183656;28;20279;-90
2022/08/07 07:51:43;;;;;;;3.80;1.95;;;24.20;99.90;;;;;;4167009;28;20176;-91
2022/08/07 07:53:46;;;;;;;6.10;1.73;;;24.20;99.90;;;;;;4185525;28;20234;-90
2022/08/07 07:55:47;;;;;;;5.53;1.77;;;24.20;99.90;;;;;;4166189;28;20180;-91
2022/08/07 07:57:50;;;;;;;4.18;1.88;;;24.30;99.90;;;;;;4149798;28;20235;-90
2022/08/07 07:59:53;;;;;;;3.92;1.80;;;24.50;99.90;;;;;;4150821;28;20239;-93
2022/08/07 08:01:55;;;;;;;4.53;1.50;;;24.80;99.90;;;;;;4151809;28;20204;-91
2022/08/07 08:03:59;;;;;;;4.00;1.50;;;25.00;99.90;;;;;;4150834;28;20254;-91
2022/08/07 08:06:01;;;;;;;5.63;1.70;;;25.10;99.90;;;;;;4166210;28;20172;-90
2022/08/07 08:08:02;;;;;;;4.78;1.90;;;25.00;99.90;;;;;;4167095;28;20215;-91
2022/08/07 08:10:06;;;;;;;5.10;1.52;;;24.90;99.90;;;;;;4166178;28;20196;-90
2022/08/07 08:12:08;;;;;;;4.13;1.60;;;25.10;99.90;;;;;;4166915;28;20168;-95
2022/08/07 08:14:09;;;;;;;5.22;1.88;;;25.20;99.90;;;;;;4167523;28;20258;-90
2022/08/07 08:16:18;;;;;;;3.38;1.40;;;24.90;99.90;;;;;;4149237;28;20212;-91
2022/08/07 08:18:23;;;;;;;3.08;1.52;;;25.10;99.90;;;;;;4148964;28;20211;-96
2022/08/07 08:20:26;;;;;;;3.00;1.80;;;25.50;99.90;;;;;;4165578;28;20176;-93
2022/08/07 08:27:14;;;;;;;3.88;1.80;;;25.80;99.90;;;;;;4183776;28;20168;-91
2022/08/07 08:29:16;;;;;;;2.55;1.70;;;25.60;99.90;;;;;;4165553;28;20175;-91
2022/08/07 08:31:24;;;;;;;2.92;1.45;;;25.40;99.90;;;;;;4181691;28;20258;-92
2022/08/07 08:33:29;;;;;;;2.40;1.42;;;25.40;99.90;;;;;;4165690;28;20664;-95
2022/08/07 08:35:32;;;;;;;3.47;1.35;;;25.60;99.90;;;;;;4183316;28;20201;-95
2022/08/07 08:37:35;;;;;;;2.95;1.50;;;25.80;99.90;;;;;;4165528;28;20294;-91
2022/08/07 08:39:38;;;;;;;7.03;1.40;;;25.90;99.90;;;;;;4181545;28;20245;-94
2022/08/07 08:42:06;;;;;;;3.92;1.50;;;26.00;99.90;;;;;;4165288;28;20172;-91
2022/08/07 08:44:24;;;;;;;3.20;1.60;;;25.40;99.90;;;;;;4182655;28;20183;-91
2022/08/07 08:46:47;;;;;;;3.53;1.80;;;25.70;99.90;;;;;;4166140;28;20229;-90
2022/08/07 08:49:13;;;;;;;4.15;1.80;;;25.90;99.90;;;;;;4181845;28;20654;-90
2022/08/07 08:52:02;;;;;;;6.07;2.03;;;25.90;99.90;;;;;;4106191;28;20188;-91
2022/08/07 08:54:13;;;;;;;3.63;1.60;;;26.00;99.90;;;;;;4157768;28;20219;-95
2022/08/07 08:56:20;;;;;;;2.95;1.70;;;26.30;99.90;;;;;;4181841;28;20178;-94
2022/08/07 08:58:49;;;;;;;7.40;1.50;;;26.40;99.90;;;;;;4180978;28;20296;-92
2022/08/07 09:01:01;;;;;;;5.45;1.67;;;26.50;99.90;;;;;;4165547;28;20534;-96
2022/08/07 09:03:14;;;;;;;4.53;1.77;;;26.90;99.90;;;;;;4180968;28;20187;-93
2022/08/07 09:05:39;;;;;;;2.88;1.40;;;26.30;99.90;;;;;;4164456;28;20209;-91
2022/08/07 09:07:48;;;;;;;4.95;1.45;;;25.90;99.90;;;;;;4182143;28;20198;-92
2022/08/07 09:10:10;;;;;;;6.53;1.45;;;26.80;99.90;;;;;;4165765;28;20172;-91
2022/08/07 09:12:31;;;;;;;3.78;1.80;;;26.90;99.90;;;;;;4164522;28;20184;-91
2022/08/07 09:14:43;;;;;;;3.47;1.30;;;27.20;99.90;;;;;;4165165;28;20227;-96
2022/08/07 09:16:56;;;;;;;2.65;1.23;;;27.10;99.90;;;;;;4166314;28;20181;-95
2022/08/07 09:19:30;;;;;;;4.60;1.20;;;27.20;99.90;;;;;;4181319;28;20175;-92
2022/08/07 09:21:38;;;;;;;3.40;1.50;;;27.10;99.90;;;;;;4165592;28;20180;-94
2022/08/07 09:23:48;;;;;;;1.70;1.30;;;27.10;99.90;;;;;;4164992;28;20191;-92
2022/08/07 09:26:20;;;;;;;3.15;1.38;;;26.50;99.90;;;;;;4147898;28;20168;-93
2022/08/07 09:28:40;;;;;;;2.50;1.10;;;26.50;99.90;;;;;;4133750;28;20192;-96
2022/08/07 09:31:05;;;;;;;4.65;1.30;;;26.00;99.90;;;;;;4165571;28;20176;-92
2022/08/07 09:33:31;;;;;;;3.92;1.10;;;26.50;99.90;;;;;;4166006;28;20192;-91
2022/08/07 09:35:54;;;;;;;3.67;1.27;;;26.10;99.90;;;;;;4165251;28;20219;-95
2022/08/07 09:38:06;;;;;;;4.28;1.10;;;26.50;99.90;;;;;;4165695;28;20603;-92
2022/08/07 09:40:07;;;;;;;2.92;1.23;;;26.40;99.90;;;;;;4182205;28;20250;-91
2022/08/07 09:42:48;;;;;;;4.13;1.40;;;26.00;99.90;;;;;;4164543;28;20184;-96
2022/08/07 09:45:08;;;;;;;2.70;1.20;;;26.00;99.90;;;;;;4083574;29;20203;-96
2022/08/07 09:47:28;;;;;;;2.70;1.00;;;26.20;99.90;;;;;;4147826;28;20548;-92
2022/08/07 09:50:12;;;;;;;2.25;1.10;;;26.40;99.90;;;;;;4167095;28;20656;-95
2022/08/07 09:52:29;;;;;;;4.43;1.00;;;26.20;99.90;;;;;;4183291;28;20179;-95
2022/08/07 09:54:45;;;;;;;7.43;1.48;;;26.30;99.90;;;;;;4167215;28;20211;-94
2022/08/07 09:57:08;;;;;;;3.47;1.25;;;26.10;99.90;;;;;;4167090;28;20165;-90
2022/08/07 09:59:31;;;;;;;2.15;1.10;;;26.20;99.90;;;;;;4184431;28;20172;-92
2022/08/07 10:01:53;;;;;;;2.72;0.95;;;25.80;99.90;;;;;;4167437;28;20177;-95
2022/08/07 10:04:13;;;;;;;6.53;1.42;;;26.20;99.90;;;;;;4167346;28;20204;-92
2022/08/07 10:06:45;;;;;;;4.00;1.52;;;26.40;99.90;;;;;;4168034;28;20180;-94
2022/08/07 10:09:28;;;;;;;4.68;1.20;;;26.60;99.90;;;;;;4184240;28;20225;-91
2022/08/07 10:11:47;;;;;;;3.22;1.27;;;26.70;99.90;;;;;;4168304;28;20180;-96
2022/08/07 10:14:18;;;;;;;5.38;1.95;;;26.50;99.90;;;;;;4168128;28;20208;-92
2022/08/07 10:16:46;;;;;;;2.25;1.50;;;26.40;99.90;;;;;;4183547;28;20180;-91
2022/08/07 10:19:26;;;;;;;2.97;1.40;;;26.40;99.90;;;;;;4167212;28;20184;-91
2022/08/07 10:21:52;;;;;;;3.33;1.38;;;26.50;99.90;;;;;;4169173;28;20180;-93
2022/08/07 10:24:33;;;;;;;4.13;1.55;;;26.30;99.90;;;;;;4167913;28;20195;-90
2022/08/07 10:26:58;;;;;;;3.15;1.30;;;25.20;99.90;;;;;;4157882;28;20184;-95
2022/08/07 10:29:09;;;;;;;3.03;1.38;;;25.00;99.90;;;;;;4166789;28;20176;-94
2022/08/07 10:31:19;;;;;;;1.85;1.10;;;25.50;99.90;;;;;;4166437;28;20172;-92
2022/08/07 10:33:45;;;;;;;3.78;1.42;;;25.70;99.90;;;;;;4186731;28;20281;-92
2022/08/07 10:35:54;;;;;;;2.13;1.10;;;25.00;99.90;;;;;;4168878;28;20241;-92
2022/08/07 10:38:13;;;;;;;4.15;1.70;;;25.00;99.90;;;;;;4167196;28;20174;-91
2022/08/07 10:40:22;;;;;;;5.28;1.80;;;25.10;99.90;;;;;;4166692;28;20636;-92
2022/08/07 10:42:31;;;;;;;3.80;1.60;;;25.00;99.90;;;;;;4166302;28;20744;-95
2022/08/07 10:45:00;;;;;;;5.00;1.38;;;24.70;99.90;;;;;;4182849;28;20197;-92
2022/08/07 10:47:15;;;;;;;4.13;1.15;;;24.70;99.90;;;;;;4166375;28;20171;-95
2022/08/07 10:49:19;;;;;;;3.47;1.30;;;24.30;99.90;;;;;;4166794;28;20199;-94
2022/08/07 10:51:23;;;;;;;3.38;1.60;;;24.30;99.90;;;;;;4166716;28;20188;-92
2022/08/07 10:53:32;;;;;;;5.35;1.50;;;24.00;99.90;;;;;;4182590;28;20206;-91
2022/08/07 10:55:44;;;;;;;3.58;1.20;;;24.10;99.90;;;;;;4166798;28;20176;-91
2022/08/07 10:58:10;;;;;;;7.18;1.40;;;23.90;99.90;;;;;;4182954;28;20171;-94
2022/08/07 11:00:14;;;;;;;3.55;1.42;;;24.10;99.90;;;;;;4182991;28;20636;-92
2022/08/07 11:02:38;;;;;;;1.90;1.70;;;24.10;99.90;;;;;;4183127;28;20176;-96
2022/08/07 11:04:42;;;;;;;2.58;1.23;;;24.00;99.90;;;;;;4166714;28;20188;-93
2022/08/07 11:07:20;;;;;;;2.88;1.30;;;24.00;99.90;;;;;;4166156;28;20180;-93
2022/08/07 11:09:32;;;;;;;2.00;1.35;;;24.20;99.90;;;;;;4166526;28;20176;-92
2022/08/07 11:12:01;;;;;;;3.38;1.35;;;24.20;99.90;;;;;;4166448;28;20175;-91
2022/08/07 11:14:10;;;;;;;2.47;1.10;;;24.00;99.90;;;;;;4144308;28;20224;-91
2022/08/07 11:16:19;;;;;;;2.28;1.05;;;24.10;99.90;;;;;;4151264;28;20187;-90
2022/08/07 11:18:37;;;;;;;4.85;1.13;;;24.10;99.90;;;;;;4166434;28;20187;-96